Historyczne dane pomiarowe

Dodano dane terminowe – wersja testowa.

Dane z okresu 1951-2019

Wersja bazy: 1.32 [2019-02-07, lista zmian], aktualizacja planowana na 2019-03-07

Dane meteo z obszaru Polski uzyskane na podstawie danych udostępnionych przez Instytut Meteorologii i Gospodarki Wodnej – Państwowy Instytut Badawczy.

 

Wybierz Datę:    

       

TemperaturaWilgotnośćWiatrCiśnienieOpadyŚniegCzas trwania zjawisk
 Stacja t tx tn tng RH VA  wxwx mslp ppp RRR   cm mm wxwxwxwxwxwxwx
1969-01-14 2.3 4.4 -1.4--- 3.0 6.7---- 0.0-- 1---------
1969-01-15 -1.9 4.0 -3.3--- 4.3 5.0---- 0.0------------
1969-01-16 2.6 5.6 -2.3--- 3.0 3.7---- 0.0------------
1969-01-17 -0.2 2.5 -1.4--- 8.0 4.7---- 0.0------------
1969-01-18 0.5 1.2 -0.9--- 8.0 5.0---- 0.0------------
1969-01-19 -0.6 1.0 -2.2--- 8.0 5.0---- 0.3------------
1969-01-20 -8.1 -1.6-10.2--- 3.7 8.3---- 0.0------------
1969-01-21-12.2 -8.8-15.3--- 1.7 3.7---- 0.0------------
1969-01-22 -5.9 -2.5-15.0--- 5.3 1.7---- 0.0------------
1969-01-23 -0.4 1.4 -3.1--- 8.0 6.7---- 14.4------------
1969-01-24 -1.4 1.8 -2.4--- 8.0 5.3---- 2.0-- 10---------
1969-01-25 -4.3 -1.5 -6.0--- 6.0 3.0---- 0.0-- 10---------
1969-01-26-14.1 -4.3-18.1--- 1.0 1.7---- 0.0-- 10---------
1969-01-27-15.6-10.0-22.6--- 0.3 0.7---- 0.0-- 9---------
1969-01-28 -6.5 -4.8-15.5--- 6.7 5.0---- 0.0-- 9---------
1969-01-29 -2.3 -1.3 -5.6--- 8.0 5.0---- 1.8-- 6---------
1969-01-30 1.3 3.0 -2.3--- 7.3 4.7---- 4.8-- 9---------
1969-01-31 1.5 3.3 0.3--- 7.7 3.7---- 0.0-- 4---------
1969-02-01 0.6 3.4 -1.2--- 4.0 4.7---- 0.6------------
1969-02-02 2.0 5.4 -1.4--- 2.3 4.3---- 0.0------------
1969-02-03 1.2 3.4 -0.2--- 5.3 3.3---- 2.1------------
1969-02-04 -0.4 2.0 -1.9--- 6.3 3.0---- 0.0------------
1969-02-05 -4.2 -0.2 -5.1--- 4.3 5.0---- 0.0------------
1969-02-06 -4.0 -1.2 -7.5--- 6.7 8.0---- 0.0------------
1969-02-07 -3.9 -1.4 -6.5--- 4.7 6.7---- 0.0------------
1969-02-08 -4.7 1.2 -8.0--- 6.7 9.0---- 0.8------------
1969-02-09 -9.1 -5.2-10.0--- 8.0 5.3---- 8.3-- 2---------
1969-02-10 -5.0 -1.6-10.0--- 7.0 3.0---- 0.0-- 20---------
1969-02-11-15.7 -6.3-21.7--- 3.0 2.0---- 0.0-- 20---------
1969-02-12-19.5-12.1-30.5--- 0.0 1.0---- 0.0-- 19---------
154.8 ms

 

Źródłem pochodzenia danych jest Instytut Meteorologii i Gospodarki Wodnej – Państwowy Instytut Badawczy. Dane Instytutu Meteorologii i Gospodarki Wodnej – Państwowego Instytutu Badawczego zostały przetworzone.

Dane źródłowe można odnaleźć na stronie https://dane.imgw.pl